createdAt,value
2018-12-23T00:00:25.206Z,8.02
2018-12-23T00:01:24.131Z,7.95
2018-12-23T00:02:26.137Z,8.00
2018-12-23T00:03:24.053Z,7.99
2018-12-23T00:04:24.003Z,7.95
2018-12-23T00:05:23.998Z,7.92
2018-12-23T00:06:23.982Z,7.95
2018-12-23T00:07:24.013Z,8.02
2018-12-23T00:08:24.014Z,8.04
2018-12-23T00:09:24.018Z,8.06
2018-12-23T00:10:23.851Z,7.95
2018-12-23T00:11:23.826Z,7.96
2018-12-23T00:12:23.812Z,8.02
2018-12-23T00:13:23.769Z,7.96
2018-12-23T00:14:23.762Z,8.02
2018-12-23T00:15:23.716Z,7.99
2018-12-23T00:16:23.705Z,8.12
2018-12-23T00:17:23.691Z,8.00
2018-12-23T00:18:23.636Z,8.04
2018-12-23T00:19:23.623Z,8.02
2018-12-23T00:20:23.599Z,8.09
2018-12-23T00:21:23.547Z,8.03
2018-12-23T00:22:23.541Z,8.09
2018-12-23T00:23:23.591Z,8.12
2018-12-23T00:24:23.515Z,8.14
2018-12-23T00:25:23.488Z,8.06
2018-12-23T00:26:23.415Z,8.18
2018-12-23T00:27:23.551Z,8.20
2018-12-23T00:28:23.359Z,8.09
2018-12-23T00:29:23.425Z,8.14
2018-12-23T00:30:23.296Z,8.07
2018-12-23T00:31:23.308Z,8.10
2018-12-23T00:32:23.264Z,8.07
2018-12-23T00:33:25.453Z,8.13
2018-12-23T00:34:23.250Z,8.10
2018-12-23T00:35:23.166Z,8.12
2018-12-23T00:36:29.896Z,8.13
2018-12-23T00:37:23.103Z,8.14
2018-12-23T00:38:23.156Z,8.13
2018-12-23T00:39:23.046Z,8.14
2018-12-23T00:40:23.069Z,8.21
2018-12-23T00:41:23.013Z,8.18
2018-12-23T00:42:25.134Z,8.13
2018-12-23T00:43:22.961Z,8.17
2018-12-23T00:44:22.997Z,8.21
2018-12-23T00:45:22.890Z,8.17
2018-12-23T00:46:22.880Z,8.18
2018-12-23T00:47:22.833Z,8.25
2018-12-23T00:48:22.798Z,8.18
2018-12-23T00:49:22.791Z,8.21
2018-12-23T00:50:22.847Z,8.17
2018-12-23T00:51:22.731Z,8.20
2018-12-23T00:52:22.744Z,8.20
2018-12-23T00:53:22.678Z,8.14
2018-12-23T00:54:23.305Z,8.25
2018-12-23T00:55:22.609Z,8.25
2018-12-23T00:56:22.687Z,8.20
2018-12-23T00:57:22.588Z,8.20
2018-12-23T00:58:24.344Z,8.14
2018-12-23T00:59:22.517Z,8.28
2018-12-23T01:00:22.641Z,8.24
2018-12-23T01:01:22.470Z,8.20
2018-12-23T01:02:38.397Z,8.28
2018-12-23T01:03:22.524Z,8.20
2018-12-23T01:04:24.496Z,8.22
2018-12-23T01:05:28.699Z,8.14
2018-12-23T01:06:28.986Z,8.22
2018-12-23T01:07:22.323Z,8.18
2018-12-23T01:08:28.940Z,8.14
2018-12-23T01:09:22.309Z,8.18
2018-12-23T01:10:23.358Z,8.17
2018-12-23T01:11:22.189Z,8.24
2018-12-23T01:12:28.960Z,8.27
2018-12-23T01:13:22.130Z,8.14
2018-12-23T01:14:31.033Z,8.20
2018-12-23T01:15:22.077Z,8.20
2018-12-23T01:16:37.998Z,8.10
2018-12-23T01:17:22.035Z,8.21
2018-12-23T01:18:22.158Z,8.12
2018-12-23T01:19:21.975Z,8.12
2018-12-23T01:20:24.154Z,8.13
2018-12-23T01:21:21.923Z,8.24
2018-12-23T01:22:21.963Z,8.28
2018-12-23T01:23:21.897Z,8.22
2018-12-23T01:24:21.975Z,8.28
2018-12-23T01:25:21.828Z,8.17
2018-12-23T01:26:22.918Z,8.22
2018-12-23T01:27:21.764Z,8.18
2018-12-23T01:28:36.457Z,8.24
2018-12-23T01:29:21.710Z,8.21
2018-12-23T01:30:28.478Z,8.21
2018-12-23T01:31:21.663Z,8.25
2018-12-23T01:32:21.671Z,8.27
2018-12-23T01:33:21.563Z,8.21
2018-12-23T01:34:21.595Z,8.20
2018-12-23T01:35:21.524Z,8.22
2018-12-23T01:36:21.596Z,8.29
2018-12-23T01:37:21.464Z,8.21
2018-12-23T01:38:21.424Z,8.24
2018-12-23T01:39:24.343Z,8.31
2018-12-23T01:40:21.378Z,8.21
2018-12-23T01:42:21.330Z,8.20
2018-12-23T01:43:21.314Z,8.21
2018-12-23T01:44:22.371Z,8.22
2018-12-23T01:45:21.237Z,8.31
2018-12-23T02:48:19.427Z,8.28
2018-12-23T02:49:16.549Z,8.25
2018-12-23T02:50:16.375Z,8.27
2018-12-23T02:51:16.457Z,8.28
2018-12-23T02:52:16.341Z,8.27
2018-12-23T02:53:16.300Z,8.29
2018-12-23T02:54:16.260Z,8.25
2018-12-23T02:55:16.238Z,8.29
2018-12-23T02:56:16.213Z,8.32
2018-12-23T02:57:16.177Z,8.20
2018-12-23T02:58:16.162Z,8.31
2018-12-23T02:59:16.122Z,8.28
2018-12-23T03:00:16.099Z,8.29
2018-12-23T03:01:16.079Z,8.27
2018-12-23T03:02:16.100Z,8.29
2018-12-23T03:03:16.133Z,8.28
2018-12-23T03:04:15.993Z,8.27
2018-12-23T03:05:15.948Z,8.22
2018-12-23T03:06:16.043Z,8.25
2018-12-23T03:07:15.907Z,8.24
2018-12-23T03:08:15.885Z,8.28
2018-12-23T03:09:15.858Z,8.22
2018-12-23T03:10:15.848Z,8.37
2018-12-23T03:11:15.875Z,8.29
2018-12-23T03:12:15.786Z,8.28
2018-12-23T03:13:15.757Z,8.24
2018-12-23T03:14:15.781Z,8.28
2018-12-23T03:15:15.689Z,8.27
2018-12-23T03:16:15.663Z,8.28
2018-12-23T03:17:15.655Z,8.24
2018-12-23T03:18:15.605Z,8.34
2018-12-23T03:19:15.588Z,8.21
2018-12-23T03:20:15.540Z,8.27
2018-12-23T03:21:15.523Z,8.24
2018-12-23T03:22:15.501Z,8.22
2018-12-23T03:23:15.459Z,8.28
2018-12-23T03:24:15.439Z,8.21
2018-12-23T03:25:15.398Z,8.22
2018-12-23T03:26:15.390Z,8.28
2018-12-23T03:27:15.355Z,8.27
2018-12-23T03:28:15.330Z,8.24
2018-12-23T03:29:15.289Z,8.24
2018-12-23T03:30:15.266Z,8.28
2018-12-23T03:31:15.264Z,8.27
2018-12-23T03:32:15.207Z,8.21
2018-12-23T03:33:15.193Z,8.18
2018-12-23T03:34:15.230Z,8.17
2018-12-23T03:35:15.113Z,8.14
2018-12-23T03:36:15.567Z,8.18
2018-12-23T03:37:15.087Z,8.17
2018-12-23T03:38:15.033Z,8.02
2018-12-23T03:39:15.039Z,8.06
2018-12-23T03:40:15.003Z,7.99
2018-12-23T03:41:14.956Z,8.02
2018-12-23T03:42:14.945Z,7.99
2018-12-23T03:43:14.893Z,8.00
2018-12-23T03:44:14.872Z,8.06
2018-12-23T03:45:14.855Z,8.00
2018-12-23T03:46:14.811Z,7.96
2018-12-23T03:47:14.780Z,7.96
2018-12-23T03:48:14.808Z,8.00
2018-12-23T03:49:14.739Z,8.03
2018-12-23T03:50:14.710Z,8.09
2018-12-23T03:51:14.687Z,8.07
2018-12-23T03:52:14.652Z,8.02
2018-12-23T03:53:14.615Z,8.09
2018-12-23T03:54:14.606Z,8.12
2018-12-23T03:55:14.559Z,8.07
2018-12-23T03:56:14.537Z,8.18
2018-12-23T03:57:14.524Z,8.10
2018-12-23T03:58:14.526Z,8.12
2018-12-23T03:59:14.454Z,8.10
2018-12-23T04:00:14.440Z,8.09
2018-12-23T04:01:14.393Z,8.06
2018-12-23T04:02:14.359Z,7.99
2018-12-23T04:03:14.362Z,7.99
2018-12-23T04:04:14.334Z,8.04
2018-12-23T04:05:14.294Z,7.94
2018-12-23T04:06:14.269Z,7.94
2018-12-23T04:07:14.228Z,8.12
2018-12-23T04:08:14.194Z,7.96
2018-12-23T04:09:14.190Z,8.02
2018-12-23T04:10:14.219Z,8.00
2018-12-23T04:11:14.105Z,7.88
2018-12-23T04:12:14.081Z,7.96
2018-12-23T04:13:14.133Z,8.00
2018-12-23T04:14:14.033Z,7.99
2018-12-23T04:15:14.133Z,8.02
2018-12-23T04:16:14.034Z,8.02
2018-12-23T04:17:13.968Z,8.04
2018-12-23T04:18:14.077Z,7.96
2018-12-23T04:19:13.875Z,7.91
2018-12-23T04:20:13.972Z,8.00
2018-12-23T04:21:13.827Z,7.99
2018-12-23T04:22:13.815Z,7.95
2018-12-23T04:23:13.780Z,7.99
2018-12-23T04:24:13.746Z,8.00
2018-12-23T04:25:13.813Z,8.03
2018-12-23T04:26:13.831Z,7.94
2018-12-23T04:27:13.699Z,7.95
2018-12-23T04:28:14.735Z,7.95
2018-12-23T04:29:13.732Z,8.07
2018-12-23T04:30:13.720Z,7.96
2018-12-23T04:31:13.557Z,7.94
2018-12-23T04:32:14.072Z,8.02
2018-12-23T05:22:07.701Z,8.03
2018-12-23T05:23:05.711Z,8.04
2018-12-23T05:24:05.680Z,8.14
2018-12-23T05:25:05.655Z,8.18
2018-12-23T05:26:05.624Z,8.18
2018-12-23T05:27:05.602Z,8.18
2018-12-23T05:28:05.568Z,8.24
2018-12-23T05:29:05.543Z,8.06
2018-12-23T05:30:05.580Z,8.13
2018-12-23T05:31:05.495Z,8.21
2018-12-23T05:32:05.450Z,8.09
2018-12-23T05:33:05.495Z,8.13
2018-12-23T05:34:05.413Z,8.07
2018-12-23T05:35:05.541Z,8.09
2018-12-23T05:36:05.351Z,8.12
2018-12-23T05:37:05.340Z,8.18
2018-12-23T05:38:05.433Z,8.20
2018-12-23T05:39:05.291Z,8.18
2018-12-23T05:40:05.257Z,8.09
2018-12-23T05:41:05.230Z,8.17
2018-12-23T05:42:05.383Z,8.14
2018-12-23T05:43:05.178Z,8.14
2018-12-23T05:44:05.136Z,8.21
2018-12-23T05:45:05.100Z,8.20
2018-12-23T05:46:05.069Z,8.24
2018-12-23T05:47:05.065Z,8.21
2018-12-23T05:48:05.013Z,8.18
2018-12-23T05:49:05.032Z,8.18
2018-12-23T05:50:04.973Z,8.25
2018-12-23T05:51:04.973Z,8.18
2018-12-23T05:52:04.902Z,8.18
2018-12-23T05:53:04.911Z,8.14
2018-12-23T05:54:04.856Z,8.18
2018-12-23T05:55:04.833Z,8.20
2018-12-23T05:56:04.786Z,8.14
2018-12-23T05:57:04.893Z,8.21
2018-12-23T05:58:04.734Z,8.21
2018-12-23T05:59:04.702Z,8.17
2018-12-23T06:00:04.675Z,8.25
2018-12-23T06:01:04.651Z,8.18
2018-12-23T06:02:04.667Z,8.24
2018-12-23T06:03:04.589Z,8.18
2018-12-23T06:04:04.612Z,8.13
2018-12-23T06:05:04.527Z,8.21
2018-12-23T06:06:04.654Z,8.27
2018-12-23T06:07:04.483Z,8.21
2018-12-23T06:08:04.457Z,8.21
2018-12-23T06:09:05.458Z,8.17
2018-12-23T06:10:04.384Z,8.22
2018-12-23T06:11:04.423Z,8.21
2018-12-23T06:12:04.341Z,8.22
2018-12-23T06:13:04.311Z,8.21
2018-12-23T06:14:04.275Z,8.20
2018-12-23T06:15:04.284Z,8.20
2018-12-23T06:16:04.421Z,8.20
2018-12-23T06:17:04.244Z,8.24
2018-12-23T06:18:04.187Z,8.28
2018-12-23T06:19:04.251Z,8.27
2018-12-23T06:20:04.199Z,8.27
2018-12-23T06:21:04.081Z,8.24
2018-12-23T06:22:04.299Z,8.29
2018-12-23T06:23:04.028Z,8.22
2018-12-23T06:24:04.018Z,8.22
2018-12-23T06:25:03.984Z,8.24
2018-12-23T06:26:03.932Z,8.22
2018-12-23T06:27:03.916Z,8.29
2018-12-23T06:28:03.889Z,8.27
2018-12-23T06:29:03.858Z,8.29
2018-12-23T06:30:03.835Z,8.24
2018-12-23T06:31:03.787Z,8.25
2018-12-23T06:32:03.775Z,8.22
2018-12-23T06:33:03.756Z,8.32
2018-12-23T06:34:03.820Z,8.24
2018-12-23T06:35:03.704Z,8.28
2018-12-23T06:36:03.692Z,8.29
2018-12-23T06:37:09.918Z,8.24
2018-12-23T06:38:03.607Z,8.27
2018-12-23T06:39:03.662Z,8.18
2018-12-23T06:40:03.546Z,8.21
2018-12-23T06:41:03.511Z,8.18
2018-12-23T06:42:03.501Z,8.25
2018-12-23T06:43:03.439Z,8.28
2018-12-23T06:44:03.445Z,8.24
2018-12-23T06:45:03.396Z,8.28
2018-12-23T06:46:03.361Z,8.29
2018-12-23T06:47:03.341Z,8.28
2018-12-23T06:48:03.325Z,8.25
2018-12-23T06:49:03.340Z,8.32
2018-12-23T06:50:03.245Z,8.25
2018-12-23T06:51:03.224Z,8.20
2018-12-23T06:52:03.204Z,8.31
2018-12-23T06:53:03.168Z,8.29
2018-12-23T06:54:03.132Z,8.28
2018-12-23T06:55:03.195Z,8.39
2018-12-23T06:56:03.082Z,8.28
2018-12-23T06:57:03.066Z,8.28
2018-12-23T06:58:03.032Z,8.32
2018-12-23T06:59:03.006Z,8.29
2018-12-23T07:00:03.286Z,8.31
2018-12-23T07:01:02.945Z,8.27
2018-12-23T07:02:02.923Z,8.31
2018-12-23T07:03:02.887Z,8.32
2018-12-23T07:04:02.963Z,8.32
2018-12-23T07:05:02.827Z,8.29
2018-12-23T07:06:02.859Z,8.29
2018-12-23T07:07:02.789Z,8.37
2018-12-23T07:08:02.756Z,8.28
2018-12-23T07:09:02.724Z,8.32
2018-12-23T07:10:02.710Z,8.27
2018-12-23T07:11:02.693Z,8.29
2018-12-23T07:12:02.656Z,8.37
2018-12-23T07:13:02.735Z,8.27
2018-12-23T07:14:02.601Z,8.27
2018-12-23T07:39:05.617Z,8.39
2018-12-23T07:40:03.659Z,8.32
2018-12-23T07:41:03.665Z,8.34
2018-12-23T07:42:03.611Z,8.34
2018-12-23T07:43:03.585Z,8.37
2018-12-23T07:44:03.546Z,8.37
2018-12-23T07:45:03.543Z,8.37
2018-12-23T07:46:03.491Z,8.37
2018-12-23T07:47:03.471Z,8.37
2018-12-23T07:48:03.437Z,8.39
2018-12-23T07:49:03.467Z,8.29
2018-12-23T07:50:03.390Z,8.29
2018-12-23T07:51:03.411Z,8.39
2018-12-23T07:52:03.365Z,8.37
2018-12-23T07:53:03.426Z,8.37
2018-12-23T07:54:03.268Z,8.34
2018-12-23T07:55:03.243Z,8.32
2018-12-23T07:56:03.237Z,8.28
2018-12-23T07:57:03.177Z,8.39
2018-12-23T07:58:03.173Z,8.39
2018-12-23T07:59:03.130Z,8.29
2018-12-23T08:00:03.111Z,8.28
2018-12-23T08:01:03.073Z,8.32
2018-12-23T08:02:03.105Z,8.36
2018-12-23T08:03:03.020Z,8.39
2018-12-23T08:04:02.978Z,8.36
2018-12-23T08:05:02.995Z,8.34
2018-12-23T08:06:03.004Z,8.36
2018-12-23T08:07:02.901Z,8.32
2018-12-23T08:08:02.928Z,8.28
2018-12-23T08:09:02.847Z,8.36
2018-12-23T08:10:02.811Z,8.31
2018-12-23T08:11:02.829Z,8.32
2018-12-23T08:12:02.790Z,8.34
2018-12-23T08:15:12.851Z,8.42
2018-12-23T08:16:12.883Z,8.40
2018-12-23T08:18:06.739Z,8.43
2018-12-23T08:19:06.828Z,8.40
2018-12-23T08:20:06.645Z,8.31
2018-12-23T08:21:06.616Z,8.40
2018-12-23T08:22:06.587Z,8.39
2018-12-23T08:23:06.559Z,8.40
2018-12-23T08:24:06.542Z,8.45
2018-12-23T08:25:06.509Z,8.42
2018-12-23T08:26:15.311Z,8.45
2018-12-23T08:27:06.494Z,8.45
2018-12-23T08:28:06.523Z,8.40
2018-12-23T08:29:06.401Z,8.42
2018-12-23T08:30:06.430Z,8.47
2018-12-23T08:31:06.395Z,8.42
2018-12-23T08:32:06.346Z,8.43
2018-12-23T08:33:06.276Z,8.46
2018-12-23T08:34:06.307Z,8.49
2018-12-23T08:35:06.252Z,8.46
2018-12-23T08:36:06.324Z,8.43
2018-12-23T08:37:06.341Z,8.39
2018-12-23T08:38:06.158Z,8.39
2018-12-23T08:39:06.155Z,8.45
2018-12-23T08:40:06.101Z,8.43
2018-12-23T08:41:06.055Z,8.43
2018-12-23T08:42:06.180Z,8.45
2018-12-23T08:43:06.029Z,8.43
2018-12-23T08:44:06.046Z,8.32
2018-12-23T08:45:05.971Z,8.46
2018-12-23T08:46:05.993Z,8.49
2018-12-23T08:47:05.976Z,8.43
2018-12-23T08:48:05.925Z,8.45
2018-12-23T08:49:06.951Z,8.47
2018-12-23T08:50:05.875Z,8.54
2018-12-23T08:51:05.815Z,8.49
2018-12-23T08:52:05.794Z,8.46
2018-12-23T08:53:06.631Z,8.42
2018-12-23T08:54:05.805Z,8.49
2018-12-23T08:55:05.721Z,8.47
2018-12-23T08:56:05.842Z,8.47
2018-12-23T08:57:05.672Z,8.49
2018-12-23T08:58:05.716Z,8.42
2018-12-23T08:59:05.664Z,8.54
2018-12-23T09:00:05.776Z,8.46
2018-12-23T09:01:05.654Z,8.52
2018-12-23T09:02:05.548Z,8.49
2018-12-23T09:03:06.208Z,8.45
2018-12-23T09:04:05.512Z,8.52
2018-12-23T09:05:05.486Z,8.50
2018-12-23T09:06:06.543Z,8.46
2018-12-23T09:07:05.432Z,8.57
2018-12-23T09:08:05.430Z,8.50
2018-12-23T09:09:06.615Z,8.50
2018-12-23T09:10:05.375Z,8.55
2018-12-23T09:11:06.407Z,8.61
2018-12-23T09:12:05.339Z,8.50
2018-12-23T09:13:06.386Z,8.57
2018-12-23T09:14:05.288Z,8.64
2018-12-23T09:15:05.301Z,8.65
2018-12-23T09:16:06.313Z,8.64
2018-12-23T09:17:05.230Z,8.55
2018-12-23T09:18:05.324Z,8.58
2018-12-23T09:19:05.189Z,8.58
2018-12-23T09:20:05.224Z,8.68
2018-12-23T09:21:05.121Z,8.57
2018-12-23T09:22:05.103Z,8.58
2018-12-23T09:23:05.079Z,8.58
2018-12-23T09:24:05.058Z,8.67
2018-12-23T09:25:05.055Z,8.68
2018-12-23T09:26:05.028Z,8.67
2018-12-23T09:27:05.037Z,8.70
2018-12-23T09:28:05.017Z,8.73
2018-12-23T09:29:04.984Z,8.65
2018-12-23T09:30:04.934Z,8.73
2018-12-23T09:31:04.905Z,8.73
2018-12-23T09:32:04.864Z,8.71
2018-12-23T09:33:04.857Z,8.71
2018-12-23T09:34:04.927Z,8.80
2018-12-23T09:35:04.795Z,8.79
2018-12-23T09:36:04.868Z,8.75
2018-12-23T09:37:04.790Z,8.80
2018-12-23T09:38:04.736Z,8.83
2018-12-23T09:39:04.752Z,8.83
2018-12-23T09:40:04.653Z,8.88
2018-12-23T09:41:04.651Z,8.93
2018-12-23T09:42:04.662Z,8.89
2018-12-23T09:43:04.610Z,8.88
2018-12-23T09:44:04.863Z,8.93
2018-12-23T09:45:04.530Z,8.86
2018-12-23T09:46:04.509Z,8.91
2018-12-23T09:47:04.480Z,8.98
2018-12-23T09:48:04.496Z,8.97
2018-12-23T09:49:04.442Z,9.01
2018-12-23T09:50:04.408Z,8.96
2018-12-23T09:51:04.382Z,9.01
2018-12-23T09:52:04.359Z,9.03
2018-12-23T09:53:04.345Z,8.96
2018-12-23T09:54:04.365Z,8.96
2018-12-23T09:55:04.295Z,9.00
2018-12-23T09:56:04.267Z,8.97
2018-12-23T09:57:04.257Z,8.97
2018-12-23T09:58:04.248Z,9.00
2018-12-23T09:59:04.202Z,9.03
2018-12-23T10:00:05.242Z,9.03
2018-12-23T10:01:04.146Z,9.01
2018-12-23T10:02:04.120Z,9.01
2018-12-23T10:03:04.183Z,9.01
2018-12-23T10:04:04.066Z,8.98
2018-12-23T10:05:04.077Z,9.06
2018-12-23T10:06:04.064Z,9.04
2018-12-23T10:07:04.416Z,9.00
2018-12-23T10:08:10.007Z,8.98
2018-12-23T10:09:12.824Z,9.03
2018-12-23T10:10:03.905Z,9.03
2018-12-23T10:11:10.907Z,9.04
2018-12-23T10:12:03.879Z,9.03
2018-12-23T10:13:03.846Z,9.00
2018-12-23T10:14:04.848Z,9.06
2018-12-23T10:15:03.806Z,9.01
2018-12-23T10:16:03.878Z,9.08
2018-12-23T10:17:03.729Z,9.12
2018-12-23T10:18:03.724Z,9.03
2018-12-23T10:19:03.716Z,9.16
2018-12-23T10:20:03.748Z,9.15
2018-12-23T10:21:03.647Z,9.16
2018-12-23T10:22:03.611Z,9.13
2018-12-23T10:23:03.572Z,9.15
2018-12-23T10:24:20.258Z,9.22
2018-12-23T10:25:03.539Z,9.19
2018-12-23T10:26:04.647Z,9.10
2018-12-23T10:27:03.482Z,9.15
2018-12-23T10:28:10.363Z,9.22
2018-12-23T10:29:03.439Z,9.23
2018-12-23T10:30:03.508Z,9.22
2018-12-23T10:31:03.444Z,9.19
2018-12-23T10:32:24.349Z,9.22
2018-12-23T10:33:03.337Z,9.24
2018-12-23T10:34:29.397Z,9.30
2018-12-23T10:35:03.317Z,9.15
2018-12-23T10:39:50.553Z,9.12
2018-12-23T10:41:04.906Z,9.22
2018-12-23T10:41:44.428Z,9.15
2018-12-23T10:42:52.062Z,9.20
2018-12-23T10:43:43.776Z,9.16
2018-12-23T10:44:51.662Z,9.17
2018-12-23T10:45:43.703Z,9.12
2018-12-23T10:46:43.753Z,9.26
2018-12-23T10:47:43.690Z,9.27
2018-12-23T10:48:44.637Z,9.19
2018-12-23T10:49:43.633Z,9.23
2018-12-23T10:50:43.579Z,9.20
2018-12-23T10:51:43.589Z,9.34
2018-12-23T10:52:50.535Z,9.30
2018-12-23T10:53:43.500Z,9.31
2018-12-23T10:54:44.499Z,9.31
2018-12-23T10:55:43.495Z,9.31
2018-12-23T10:57:09.036Z,9.23
2018-12-23T10:57:43.415Z,9.32
2018-12-23T10:59:09.018Z,9.30
2018-12-23T10:59:43.559Z,9.23
2018-12-23T11:02:26.501Z,9.30
2018-12-23T11:17:18.979Z,9.50
2018-12-23T11:33:18.384Z,9.23
2018-12-23T11:34:18.488Z,9.24
2018-12-23T11:35:18.308Z,9.24
2018-12-23T11:36:18.297Z,9.26
2018-12-23T11:37:18.275Z,9.22
2018-12-23T11:38:18.276Z,9.23
2018-12-23T11:39:18.206Z,9.22
2018-12-23T11:40:18.193Z,9.16
2018-12-23T11:41:18.150Z,9.10
2018-12-23T11:42:18.206Z,9.24
2018-12-23T11:43:18.105Z,9.20
2018-12-23T11:44:18.120Z,9.22
2018-12-23T11:45:18.072Z,9.19
2018-12-23T11:46:18.129Z,9.19
2018-12-23T11:47:17.991Z,9.19
2018-12-23T11:48:18.043Z,9.19
2018-12-23T11:49:17.943Z,9.10
2018-12-23T11:50:18.048Z,9.16
2018-12-23T11:51:17.879Z,9.12
2018-12-23T11:52:17.968Z,9.16
2018-12-23T11:53:17.835Z,9.04
2018-12-23T11:54:17.882Z,9.06
2018-12-23T11:55:17.788Z,9.16
2018-12-23T11:56:17.800Z,9.10
2018-12-23T11:57:17.786Z,9.12
2018-12-23T11:58:17.862Z,9.13
2018-12-23T11:59:17.691Z,9.10
2018-12-23T12:00:17.727Z,9.01
2018-12-23T12:01:17.644Z,9.00
2018-12-23T12:02:17.630Z,9.01
2018-12-23T12:03:17.562Z,9.15
2018-12-23T12:04:17.644Z,9.03
2018-12-23T12:05:17.524Z,9.04
2018-12-23T12:06:17.560Z,9.03
2018-12-23T12:07:17.454Z,9.01
2018-12-23T12:08:17.469Z,9.04
2018-12-23T12:09:17.403Z,8.98
2018-12-23T12:10:17.485Z,9.10
2018-12-23T12:11:17.343Z,9.03
2018-12-23T12:12:17.386Z,9.13
2018-12-23T12:13:17.294Z,9.10
2018-12-23T12:14:17.303Z,9.10
2018-12-23T12:15:17.235Z,9.04
2018-12-23T12:16:17.328Z,9.08
2018-12-23T12:17:17.228Z,9.10
2018-12-23T12:18:17.239Z,9.03
2018-12-23T12:19:17.140Z,8.97
2018-12-23T12:20:17.148Z,8.86
2018-12-23T12:21:17.089Z,8.88
2018-12-23T12:22:17.160Z,8.83
2018-12-23T12:23:17.042Z,8.93
2018-12-23T12:24:17.076Z,8.89
2018-12-23T12:25:16.978Z,8.86
2018-12-23T12:26:16.982Z,8.85
2018-12-23T12:27:16.925Z,8.88
2018-12-23T12:28:17.000Z,8.83
2018-12-23T12:29:16.863Z,8.80
2018-12-23T12:30:17.933Z,8.86
2018-12-23T12:31:16.818Z,8.83
2018-12-23T12:32:16.816Z,8.76
2018-12-23T12:33:16.779Z,8.80
2018-12-23T12:34:16.831Z,8.75
2018-12-23T12:35:16.702Z,8.76
2018-12-23T12:36:16.738Z,8.67
2018-12-23T12:37:16.661Z,8.71
2018-12-23T12:38:16.652Z,8.83
2018-12-23T12:39:16.597Z,8.76
2018-12-23T12:40:16.683Z,8.78
2018-12-23T12:41:16.542Z,8.80
2018-12-23T12:42:17.608Z,8.78
2018-12-23T12:43:16.506Z,8.76
2018-12-23T12:44:16.489Z,8.80
2018-12-23T12:45:16.437Z,8.78
2018-12-23T12:46:16.507Z,8.76
2018-12-23T12:47:16.379Z,8.76
2018-12-23T12:48:16.374Z,8.71
2018-12-23T12:49:16.325Z,8.82
2018-12-23T12:50:16.390Z,8.64
2018-12-23T12:51:16.274Z,8.76
2018-12-23T12:52:16.300Z,8.73
2018-12-23T12:53:16.226Z,8.80
2018-12-23T12:54:16.211Z,8.75
2018-12-23T12:55:16.242Z,8.85
2018-12-23T12:56:16.221Z,8.70
2018-12-23T12:57:16.113Z,8.85
2018-12-23T12:58:16.133Z,8.80
2018-12-23T12:59:16.052Z,8.70
2018-12-23T13:00:16.061Z,8.71
2018-12-23T13:01:16.000Z,8.82
2018-12-23T13:02:16.062Z,8.83
2018-12-23T13:03:15.971Z,8.76
2018-12-23T13:04:15.970Z,8.82
2018-12-23T13:05:15.893Z,8.80
2018-12-23T13:06:15.897Z,8.85
2018-12-23T13:07:15.836Z,8.80
2018-12-23T13:08:43.466Z,8.82
2018-12-23T13:09:15.795Z,8.79
2018-12-23T13:10:24.513Z,8.75
2018-12-23T13:11:15.735Z,8.75
2018-12-23T13:12:36.735Z,8.79
2018-12-23T13:13:15.671Z,8.71
2018-12-23T13:14:17.687Z,8.80
2018-12-23T13:15:15.623Z,8.70
2018-12-23T13:25:38.332Z,8.65
2018-12-23T13:26:36.327Z,8.68
2018-12-23T13:27:36.307Z,8.68
2018-12-23T13:28:36.382Z,8.71
2018-12-23T13:29:36.246Z,8.68
2018-12-23T13:30:36.220Z,8.67
2018-12-23T13:31:36.206Z,8.67
2018-12-23T13:32:36.266Z,8.64
2018-12-23T13:33:36.132Z,8.60
2018-12-23T13:34:36.227Z,8.54
2018-12-23T13:35:36.089Z,8.60
2018-12-23T13:36:36.133Z,8.63
2018-12-23T13:37:36.031Z,8.55
2018-12-23T13:38:36.062Z,8.52
2018-12-23T13:39:35.975Z,8.52
2018-12-23T13:40:36.131Z,8.49
2018-12-23T13:41:35.918Z,8.49
2018-12-23T13:42:37.003Z,8.49
2018-12-23T13:43:35.864Z,8.45
2018-12-23T13:44:35.881Z,8.52
2018-12-23T13:45:35.809Z,8.45
2018-12-23T13:46:35.898Z,8.50
2018-12-23T13:47:35.755Z,8.46
2018-12-23T13:48:36.829Z,8.43
2018-12-23T13:49:35.716Z,8.49
2018-12-23T13:50:35.717Z,8.46
2018-12-23T13:51:35.652Z,8.47
2018-12-23T13:52:35.730Z,8.47
2018-12-23T13:53:35.595Z,8.46
2018-12-23T13:54:35.576Z,8.47
2018-12-23T13:55:35.552Z,8.43
2018-12-23T13:56:35.558Z,8.49
2018-12-23T13:57:35.493Z,8.46
2018-12-23T13:58:35.565Z,8.47
2018-12-23T13:59:35.428Z,8.40
2018-12-23T14:00:35.476Z,8.42
2018-12-23T14:01:35.372Z,8.45
2018-12-23T14:02:35.395Z,8.34
2018-12-23T14:03:35.328Z,8.50
2018-12-23T14:04:35.400Z,8.45
2018-12-23T14:05:35.264Z,8.45
2018-12-23T14:06:36.338Z,8.46
2018-12-23T14:07:35.210Z,8.37
2018-12-23T14:08:35.195Z,8.45
2018-12-23T14:09:35.156Z,8.43
2018-12-23T14:10:35.145Z,8.43
2018-12-23T14:11:35.104Z,8.45
2018-12-23T14:12:36.186Z,8.40
2018-12-23T14:13:35.042Z,8.42
2018-12-23T14:14:35.063Z,8.49
2018-12-23T14:15:35.000Z,8.43
2018-12-23T14:16:35.081Z,8.36
2018-12-23T14:17:34.940Z,8.45
2018-12-23T14:18:36.015Z,8.47
2018-12-23T14:19:34.894Z,8.39
2018-12-23T14:20:34.899Z,8.46
2018-12-23T14:21:34.833Z,8.45
2018-12-23T14:22:34.931Z,8.43
2018-12-23T14:23:34.767Z,8.43
2018-12-23T14:24:34.826Z,8.43
2018-12-23T14:25:34.715Z,8.50
2018-12-23T14:26:34.691Z,8.46
2018-12-23T14:27:34.687Z,8.37
2018-12-23T14:28:34.645Z,8.49
2018-12-23T14:29:34.610Z,8.46
2018-12-23T14:30:34.677Z,8.46
2018-12-23T14:31:34.610Z,8.40
2018-12-23T14:32:34.573Z,8.45
2018-12-23T14:33:34.502Z,8.46
2018-12-23T14:34:34.485Z,8.45
2018-12-23T14:35:34.448Z,8.43
2018-12-23T14:36:34.492Z,8.47
2018-12-23T14:37:34.397Z,8.32
2018-12-23T14:38:34.410Z,8.42
2018-12-23T14:39:34.476Z,8.36
2018-12-23T14:40:34.317Z,8.40
2018-12-23T14:41:34.285Z,8.34
2018-12-23T14:42:34.333Z,8.31
2018-12-23T14:43:34.221Z,8.39
2018-12-23T14:44:34.257Z,8.36
2018-12-23T14:45:34.164Z,8.36
2018-12-23T14:46:34.231Z,8.31
2018-12-23T14:47:34.112Z,8.36
2018-12-23T14:48:34.176Z,8.34
2018-12-23T14:49:34.059Z,8.36
2018-12-23T14:50:34.092Z,8.31
2018-12-23T14:51:34.000Z,8.34
2018-12-23T14:52:33.996Z,8.36
2018-12-23T14:53:33.948Z,8.29
2018-12-23T14:54:34.101Z,8.36
2018-12-23T14:55:33.901Z,8.37
2018-12-23T14:56:33.940Z,8.25
2018-12-23T14:57:33.850Z,8.28
2018-12-23T14:58:33.837Z,8.28
2018-12-23T14:59:33.789Z,8.22
2018-12-23T15:00:34.878Z,8.24
2018-12-23T15:01:33.736Z,8.31
2018-12-23T15:02:33.767Z,8.27
2018-12-23T15:03:33.675Z,8.25
2018-12-23T15:04:35.726Z,8.17
2018-12-23T15:05:33.617Z,8.27
2018-12-23T15:06:33.697Z,8.29
2018-12-23T15:07:33.571Z,8.25
2018-12-23T15:08:33.598Z,8.27
2018-12-23T15:09:34.464Z,8.21
2018-12-23T15:10:33.511Z,8.29
2018-12-23T15:11:33.463Z,8.27
2018-12-23T15:12:33.523Z,8.22
2018-12-23T15:13:33.396Z,8.21
2018-12-23T15:14:33.386Z,8.18
2018-12-23T15:15:33.342Z,8.13
2018-12-23T15:16:33.346Z,8.22
2018-12-23T15:17:33.292Z,8.29
2018-12-23T15:18:33.276Z,8.28
2018-12-23T15:19:33.232Z,8.20
2018-12-23T15:20:33.204Z,8.21
2018-12-23T15:21:33.174Z,8.21
2018-12-23T15:22:33.161Z,8.17
2018-12-23T15:23:33.211Z,8.24
2018-12-23T15:24:33.089Z,8.21
2018-12-23T15:25:33.068Z,8.24
2018-12-23T15:26:33.043Z,8.24
2018-12-23T15:27:33.192Z,8.21
2018-12-23T15:28:32.985Z,8.25
2018-12-23T15:29:32.955Z,8.14
2018-12-23T15:30:32.946Z,8.29
2018-12-23T15:31:32.911Z,8.18
2018-12-23T15:32:32.947Z,8.25
2018-12-23T15:33:32.849Z,8.14
2018-12-23T15:34:32.827Z,8.21
2018-12-23T15:35:32.813Z,8.09
2018-12-23T15:36:32.756Z,8.17
2018-12-23T15:37:32.788Z,8.17
2018-12-23T15:38:32.727Z,8.22
2018-12-23T15:39:32.791Z,8.06
2018-12-23T15:40:32.653Z,8.07
2018-12-23T15:41:32.636Z,8.07
2018-12-23T15:42:32.591Z,8.02
2018-12-23T15:43:32.576Z,8.09
2018-12-23T15:44:32.562Z,8.03
2018-12-23T15:45:32.525Z,8.02
2018-12-23T15:46:32.487Z,8.09
2018-12-23T15:47:32.460Z,7.99
2018-12-23T15:48:32.434Z,8.07
2018-12-23T15:49:32.408Z,8.02
2018-12-23T15:50:32.379Z,8.02
2018-12-23T15:51:32.342Z,7.94
2018-12-23T15:52:32.360Z,8.02
2018-12-23T15:53:47.976Z,8.00
2018-12-23T15:54:32.766Z,7.99
2018-12-23T15:55:40.020Z,8.00
2018-12-23T15:56:32.622Z,7.95
2018-12-23T15:57:39.967Z,7.94
2018-12-23T15:58:32.337Z,8.10
2018-12-23T15:59:34.256Z,8.00
2018-12-23T16:00:32.240Z,7.89
2018-12-23T16:33:11.870Z,7.82
2018-12-23T16:34:47.660Z,7.79
2018-12-23T16:35:11.814Z,7.82
2018-12-23T16:36:11.766Z,7.82
2018-12-23T16:37:26.627Z,7.79
2018-12-23T16:38:11.715Z,7.77
2018-12-23T16:39:11.748Z,7.74
2018-12-23T16:40:11.665Z,7.76
2018-12-23T16:41:11.769Z,7.76
2018-12-23T16:42:11.608Z,7.74
2018-12-23T16:43:11.685Z,7.81
2018-12-23T16:44:11.552Z,7.70
2018-12-23T16:45:11.523Z,7.62
2018-12-23T16:46:11.505Z,7.66
2018-12-23T16:47:11.500Z,7.69
2018-12-23T16:48:11.515Z,7.69
2018-12-23T16:49:11.411Z,7.73
2018-12-23T16:50:12.449Z,7.67
2018-12-23T16:51:11.362Z,7.60
2018-12-23T16:52:11.439Z,7.67